Time;durP1;ratioP1;P1;durP2;ratioP2;P2;SDS_P1;SDS_P2;PMS_P1;PMS_P2;Temp;Humidity;BMP_temperature;BMP_pressure;BME280_temperature;BME280_humidity;BME280_pressure;Samples;Min_cycle;Max_cycle;Signal;HPM_P1;HPM_P2
2021/09/12 00:13:42;;;;;;;;;;;;;;;;;;;;;
2021/09/12 00:16:31;;;;;;;;;;;;;;;;;;;;;
2021/09/12 00:29:23;;;;;;;;;;;;;;;;;;;;;
2021/09/12 00:35:17;;;;;;;;;;;;;;;;;;;;;
2021/09/12 00:38:13;;;;;;;;;;;;;;;;;;;;;
2021/09/12 00:54:06;;;;;;;;;;;;;;;;;;;;;
2021/09/12 00:57:12;;;;;;;;;;;;;;;;;;;;;
2021/09/12 01:00:10;;;;;;;;;;;;;;;;;;;;;
2021/09/12 01:02:52;;;;;;;;;9.33;8.33;;;;;19.55;52.68;101627.75;4832545;29;74309;-91
2021/09/12 01:05:52;;;;;;;;;;;;;;;;;;;;;
2021/09/12 01:11:21;;;;;;;;;8.67;8.00;;;;;19.43;52.88;101615.41;5402818;23;60596;-92
2021/09/12 01:13:59;;;;;;;;;11.67;11.00;;;;;19.33;53.01;101617.22;4968706;28;46880;-91
2021/09/12 01:17:00;;;;;;;;;;;;;;;;;;;;;
2021/09/12 01:19:55;;;;;;;;;;;;;;;;;;;;;
2021/09/12 01:23:06;;;;;;;;;;;;;;;;;;;;;
2021/09/12 01:25:26;;;;;;;;;11.00;10.00;;;;;19.28;53.32;101613.69;4981239;28;45231;-92
2021/09/12 01:28:18;;;;;;;;;;;;;;;;;;;;;
2021/09/12 01:33:49;;;;;;;;;;;;;;;;;;;;;
2021/09/12 01:36:21;;;;;;;;;11.00;11.00;;;;;19.25;53.62;101607.50;4986478;28;75563;-92
2021/09/12 01:45:05;;;;;;;;;;;;;;;;;;;;;
2021/09/12 01:47:58;;;;;;;;;;;;;;;;;;;;;
2021/09/12 01:51:02;;;;;;;;;;;;;;;;;;;;;
2021/09/12 02:03:37;;;;;;;;;;;;;;;;;;;;;
2021/09/12 02:24:42;;;;;;;;;11.33;10.33;;;;;18.90;54.12;101604.03;4963343;28;44627;-91
2021/09/12 02:27:33;;;;;;;;;;;;;;;;;;;;;
2021/09/12 02:30:41;;;;;;;;;;;;;;;;;;;;;
2021/09/12 02:33:23;;;;;;;;;;;;;;;;;;;;;
2021/09/12 02:44:05;;;;;;;;;;;;;;;;;;;;;
2021/09/12 03:00:17;;;;;;;;;;;;;;;;;;;;;
2021/09/12 03:08:43;;;;;;;;;9.00;7.67;;;;;18.57;54.74;101593.50;5011148;23;45220;-93
2021/09/12 03:11:45;;;;;;;;;;;;;;;;;;;;;
2021/09/12 03:22:36;;;;;;;;;;;;;;;;;;;;;
2021/09/12 03:25:37;;;;;;;;;;;;;;;;;;;;;
2021/09/12 03:28:45;;;;;;;;;;;;;;;;;;;;;
2021/09/12 03:31:26;;;;;;;;;11.00;10.00;;;;;18.25;55.09;101593.53;4905768;29;72320;-93
2021/09/12 03:34:29;;;;;;;;;;;;;;;;;;;;;
2021/09/12 03:37:21;;;;;;;;;9.00;9.00;;;;;18.28;55.50;101612.16;4902774;29;63625;-91
2021/09/12 03:40:17;;;;;;;;;12.00;10.67;;;;;18.23;55.27;101610.41;4905367;29;47225;-92
2021/09/12 03:43:03;;;;;;;;;;;;;;;;;;;;;
2021/09/12 03:45:55;;;;;;;;;10.00;10.00;;;;;18.18;55.76;101607.72;4956549;23;67808;-91
2021/09/12 03:48:37;;;;;;;;;12.00;11.00;;;;;18.06;55.93;101587.31;4950362;28;45550;-92
2021/09/12 03:51:16;;;;;;;;;11.00;9.00;;;;;17.98;55.92;101581.13;4946098;28;47711;-91
2021/09/12 03:54:07;;;;;;;;;9.67;7.67;;;;;18.03;56.16;101598.84;4944818;28;45558;-91
2021/09/12 03:57:03;;;;;;;;;;;;;;;;;;;;;
2021/09/12 04:00:09;;;;;;;;;;;;;;;;;;;;;
2021/09/12 04:03:13;;;;;;;;;;;;;;;;;;;;;
2021/09/12 04:06:06;;;;;;;;;;;;;;;;;;;;;
2021/09/12 04:08:46;;;;;;;;;10.33;9.00;;;;;17.76;56.41;101565.13;4963152;28;68851;-91
2021/09/12 04:11:17;;;;;;;;;11.67;10.00;;;;;17.92;56.58;101601.50;4946470;28;45295;-91
2021/09/12 04:13:45;;;;;;;;;10.00;10.00;;;;;17.78;56.60;101580.22;4946127;28;47658;-92
2021/09/12 04:16:16;;;;;;;;;8.00;8.00;;;;;17.80;57.00;101580.22;4945563;28;45429;-92
2021/09/12 04:21:17;;;;;;;;;11.67;10.00;;;;;17.77;56.93;101590.81;4960483;28;46804;-91
2021/09/12 04:24:10;;;;;;;;;;;;;;;;;;;;;
2021/09/12 04:32:46;;;;;;;;;;;;;;;;;;;;;
2021/09/12 04:38:49;;;;;;;;;;;;;;;;;;;;;
2021/09/12 04:41:29;;;;;;;;;9.67;8.00;;;;;17.62;57.40;101587.25;4973145;28;68162;-91
2021/09/12 04:47:09;;;;;;;;;9.33;8.33;;;;;17.56;57.63;101587.25;4884221;29;45605;-92
2021/09/12 04:50:28;;;;;;;;;;;;;;;;;;;;;
2021/09/12 04:53:14;;;;;;;;;;;;;;;;;;;;;
2021/09/12 04:56:21;;;;;;;;;;;;;;;;;;;;;
2021/09/12 04:59:15;;;;;;;;;9.33;8.33;;;;;17.39;57.59;101574.81;5230779;22;46112;-92
2021/09/12 05:02:10;;;;;;;;;;;;;;;;;;;;;
2021/09/12 05:04:44;;;;;;;;;;;;;;;;;;;;;
2021/09/12 05:07:35;;;;;;;;;13.67;10.00;;;;;17.35;57.98;101570.38;5007464;28;64646;-91
2021/09/12 05:10:23;;;;;;;;;;;;;;;;;;;;;
2021/09/12 05:13:09;;;;;;;;;10.00;9.00;;;;;17.34;58.08;101577.44;5004770;28;72157;-91
2021/09/12 05:15:43;;;;;;;;;7.67;7.67;;;;;17.46;58.17;101603.19;5005198;23;44991;-91
2021/09/12 05:21:14;;;;;;;;;7.67;7.67;;;;;17.33;58.37;101586.31;4964233;28;46436;-92
2021/09/12 05:26:29;;;;;;;;;9.00;8.67;;;;;17.34;58.54;101577.44;5079149;23;67945;-92
2021/09/12 05:29:22;;;;;;;;;10.00;8.67;;;;;17.24;58.84;101563.25;4944225;28;45499;-92
2021/09/12 05:34:50;;;;;;;;;9.67;9.00;;;;;17.34;59.12;101587.22;5339018;23;71785;-91
2021/09/12 05:42:58;;;;;;;;;10.67;8.00;;;;;17.33;58.76;101585.44;4972852;23;74277;-92
2021/09/12 05:45:48;;;;;;;;;;;;;;;;;;;;;
2021/09/12 05:48:56;;;;;;;;;;;;;;;;;;;;;
2021/09/12 05:51:13;;;;;;;;;12.33;9.00;;;;;17.22;58.78;101572.09;4964799;28;45448;-92
2021/09/12 05:53:39;;;;;;;;;9.67;9.00;;;;;17.24;59.12;101571.22;4946765;28;46996;-79
2021/09/12 05:56:04;;;;;;;;;10.00;9.67;;;;;17.40;59.35;101600.53;4940489;28;45338;-79
2021/09/12 05:58:30;;;;;;;;;13.67;10.00;;;;;17.45;59.79;101601.41;4957341;28;45743;-79
2021/09/12 06:00:55;;;;;;;;;9.67;8.67;;;;;17.48;59.61;101606.75;4958285;28;45334;-80
2021/09/12 06:03:21;;;;;;;;;9.33;9.33;;;;;17.46;59.11;101599.66;4957713;28;46183;-78
2021/09/12 06:05:46;;;;;;;;;9.33;9.33;;;;;17.48;58.94;101605.84;4957414;28;45503;-79
2021/09/12 06:08:11;;;;;;;;;12.33;10.67;;;;;17.47;59.10;101607.63;4958210;28;45393;-80
2021/09/12 06:10:37;;;;;;;;;9.67;9.33;;;;;17.48;59.27;101612.06;4958146;28;45449;-79
2021/09/12 06:13:02;;;;;;;;;10.25;9.00;;;;;17.53;59.25;101625.38;4957505;28;45448;-80
2021/09/12 06:15:27;;;;;;;;;10.67;9.00;;;;;17.54;59.26;101615.59;4957872;28;45381;-78
2021/09/12 06:17:53;;;;;;;;;12.33;8.67;;;;;17.53;59.30;101620.06;4957891;28;45871;-79
2021/09/12 06:20:18;;;;;;;;;9.00;9.00;;;;;17.54;59.47;101615.59;4957739;28;45406;-79
2021/09/12 06:22:46;;;;;;;;;11.67;8.67;;;;;17.54;59.02;101618.25;4956532;28;45928;-79
2021/09/12 06:25:12;;;;;;;;;8.00;8.00;;;;;17.54;59.31;101626.25;4957651;28;45291;-79
2021/09/12 06:27:38;;;;;;;;;12.67;9.67;;;;;17.53;59.15;101624.47;4957722;28;45544;-79
2021/09/12 06:30:05;;;;;;;;;9.00;9.00;;;;;17.54;59.46;101626.25;4957794;28;45428;-79
2021/09/12 06:32:31;;;;;;;;;13.00;10.00;;;;;17.54;59.27;101616.50;4939464;28;46361;-79
2021/09/12 06:34:56;;;;;;;;;10.00;10.00;;;;;17.54;59.17;101623.56;4957529;28;45341;-79
2021/09/12 06:37:22;;;;;;;;;10.00;10.00;;;;;17.50;58.82;101620.03;4957089;28;45394;-79
2021/09/12 06:39:47;;;;;;;;;11.67;10.00;;;;;17.51;59.12;101621.81;4956124;28;45457;-80
2021/09/12 06:42:12;;;;;;;;;11.67;10.67;;;;;17.50;59.29;101622.69;4955311;28;45413;-80
2021/09/12 06:44:38;;;;;;;;;11.00;11.00;;;;;17.50;59.32;101619.13;4955453;28;45497;-80
2021/09/12 06:47:03;;;;;;;;;11.67;10.00;;;;;17.52;60.03;101622.69;4956239;28;45513;-80
2021/09/12 06:49:29;;;;;;;;;10.67;10.00;;;;;17.52;59.39;101622.69;4957295;28;45431;-80
2021/09/12 06:51:54;;;;;;;;;12.00;11.33;;;;;17.52;59.57;101620.03;4957148;28;46877;-79
2021/09/12 06:54:20;;;;;;;;;13.67;12.00;;;;;17.53;59.37;101619.16;4957050;28;45422;-80
2021/09/12 06:56:45;;;;;;;;;13.00;11.33;;;;;17.50;59.20;101614.72;4957546;28;45786;-79
2021/09/12 06:59:10;;;;;;;;;15.67;11.33;;;;;17.50;59.23;101619.13;4957697;28;45642;-80
2021/09/12 07:01:36;;;;;;;;;13.33;12.00;;;;;17.51;59.46;101615.63;4956837;28;47604;-79
2021/09/12 07:04:01;;;;;;;;;12.00;11.00;;;;;17.53;59.78;101608.53;4939796;28;45780;-81
2021/09/12 07:06:26;;;;;;;;;11.33;10.67;;;;;17.55;59.55;101612.06;4957531;28;45606;-86
2021/09/12 07:08:52;;;;;;;;;12.00;12.00;;;;;17.53;59.44;101605.88;4957310;28;45237;-79
2021/09/12 07:11:17;;;;;;;;;11.00;10.00;;;;;17.57;59.33;101612.97;4957007;28;45263;-79
2021/09/12 07:13:43;;;;;;;;;16.00;12.67;;;;;17.56;59.63;101613.84;4957032;28;45416;-79
2021/09/12 07:16:09;;;;;;;;;16.00;14.00;;;;;17.59;59.40;101617.41;4957218;28;45224;-79
2021/09/12 07:18:34;;;;;;;;;11.67;8.67;;;;;17.57;59.45;101610.31;4957322;28;45488;-81
2021/09/12 07:20:59;;;;;;;;;10.33;10.33;;;;;17.61;58.79;101620.06;4958153;28;45378;-80
2021/09/12 07:23:25;;;;;;;;;12.67;11.00;;;;;17.60;58.76;101620.94;4958402;28;45380;-79
2021/09/12 07:25:51;;;;;;;;;14.00;12.33;;;;;17.62;59.13;101626.28;4957467;28;45711;-80
2021/09/12 07:28:16;;;;;;;;;12.00;11.67;;;;;17.58;59.17;101618.28;4957510;28;45409;-80
2021/09/12 07:30:42;;;;;;;;;10.33;10.00;;;;;17.63;59.34;101623.63;4957107;28;45365;-81
2021/09/12 07:33:07;;;;;;;;;15.00;12.00;;;;;17.68;59.13;101626.28;4957588;28;45358;-81
2021/09/12 07:35:33;;;;;;;;;11.33;10.00;;;;;17.68;59.67;101618.31;4960320;28;45449;-80
2021/09/12 07:37:59;;;;;;;;;11.33;11.33;;;;;17.73;59.35;101615.63;4960346;28;45460;-80
2021/09/12 07:40:25;;;;;;;;;8.00;8.00;;;;;17.77;59.04;101620.06;4959592;28;45375;-81
2021/09/12 07:42:51;;;;;;;;;10.00;9.67;;;;;17.82;59.54;101627.19;4959719;28;45421;-80
2021/09/12 07:45:16;;;;;;;;;10.67;10.33;;;;;17.86;59.08;101624.53;4960019;28;45379;-81
2021/09/12 07:47:42;;;;;;;;;14.33;10.00;;;;;17.87;59.16;101618.34;4960108;28;45347;-81
2021/09/12 07:50:08;;;;;;;;;10.67;10.00;;;;;17.91;59.15;101623.66;4959793;28;45311;-81
2021/09/12 07:52:33;;;;;;;;;10.67;10.67;;;;;18.01;59.01;101621.00;4959547;28;45385;-80
2021/09/12 07:54:58;;;;;;;;;10.33;10.33;;;;;18.06;58.58;101625.44;4959519;28;45276;-80
2021/09/12 07:57:24;;;;;;;;;9.00;9.00;;;;;18.11;58.59;101629.84;4960365;28;45436;-81
2021/09/12 07:59:49;;;;;;;;;9.67;9.00;;;;;18.16;58.60;101631.66;4959805;28;45913;-79
2021/09/12 08:02:14;;;;;;;;;9.67;9.33;;;;;18.21;58.37;101628.16;4959867;28;45425;-80
2021/09/12 08:04:40;;;;;;;;;9.67;9.67;;;;;18.27;58.37;101623.69;4959852;28;45392;-80
2021/09/12 08:07:05;;;;;;;;;11.00;9.33;;;;;18.33;58.58;101627.25;4959870;28;45752;-81
2021/09/12 08:09:31;;;;;;;;;7.67;7.00;;;;;18.40;58.85;101627.22;4959778;28;46246;-80
2021/09/12 08:11:56;;;;;;;;;9.00;7.67;;;;;18.51;58.35;101626.31;4959278;28;45405;-80
2021/09/12 08:14:21;;;;;;;;;9.67;9.00;;;;;18.58;57.42;101628.09;4959613;28;45354;-80
2021/09/12 08:16:47;;;;;;;;;11.33;9.00;;;;;18.66;57.46;101627.19;4959841;28;45437;-79
2021/09/12 08:19:13;;;;;;;;;10.00;8.67;;;;;18.73;57.20;101631.63;4959676;28;45306;-80
2021/09/12 08:21:38;;;;;;;;;9.00;7.00;;;;;18.78;56.95;101624.53;4959414;28;45370;-80
2021/09/12 08:24:06;;;;;;;;;7.67;7.67;;;;;18.85;56.45;101630.69;4959691;28;45892;-83
2021/09/12 08:26:32;;;;;;;;;10.67;8.67;;;;;18.92;56.52;101628.91;4959890;28;45378;-80
2021/09/12 08:28:57;;;;;;;;;6.33;6.33;;;;;18.99;56.93;101628.00;4959887;28;45849;-82
2021/09/12 08:31:22;;;;;;;;;7.67;7.00;;;;;19.08;57.02;101633.28;4959694;28;45257;-84
2021/09/12 08:33:48;;;;;;;;;9.00;7.00;;;;;19.15;56.42;101628.84;4959350;28;45406;-82
2021/09/12 08:36:13;;;;;;;;;6.00;5.33;;;;;19.20;56.61;101623.50;4959970;28;45382;-83
2021/09/12 08:38:39;;;;;;;;;6.00;5.00;;;;;19.26;55.62;101618.16;4951176;28;45669;-82
2021/09/12 08:41:04;;;;;;;;;4.00;4.00;;;;;19.37;55.58;101628.75;4939691;28;45338;-83
2021/09/12 08:43:31;;;;;;;;;5.00;3.67;;;;;19.43;54.80;101626.06;4939829;28;45338;-82
2021/09/12 08:45:57;;;;;;;;;6.33;4.67;;;;;19.50;54.46;101618.88;4940837;28;45443;-81
2021/09/12 08:48:24;;;;;;;;;7.33;5.67;;;;;19.55;54.41;101622.44;4951914;28;45321;-85
2021/09/12 08:50:50;;;;;;;;;7.67;5.33;;;;;19.64;54.76;101621.50;4958564;28;44874;-86
2021/09/12 08:53:15;;;;;;;;;5.67;5.33;;;;;19.66;54.13;101618.81;4948564;28;45421;-85
2021/09/12 08:55:40;;;;;;;;;6.33;6.00;;;;;19.77;54.40;101622.31;4942631;28;45290;-83
2021/09/12 08:58:06;;;;;;;;;10.00;5.33;;;;;19.88;53.48;101635.53;4940788;28;45289;-85
2021/09/12 09:00:32;;;;;;;;;6.00;4.00;;;;;19.95;54.13;101625.72;4939983;28;45444;-81
2021/09/12 09:02:59;;;;;;;;;5.33;5.00;;;;;20.00;53.12;101615.00;4940093;28;45335;-83
2021/09/12 09:05:29;;;;;;;;;3.00;3.00;;;;;20.06;53.84;101614.97;4940311;28;45468;-80
2021/09/12 09:08:12;;;;;;;;;5.67;4.00;;;;;20.16;52.59;101617.59;4948384;28;45651;-91
2021/09/12 09:10:49;;;;;;;;;7.33;5.00;;;;;20.08;52.81;101593.59;4957876;28;45001;-89
2021/09/12 09:13:35;;;;;;;;;5.33;3.67;;;;;20.29;52.44;101603.22;4962105;28;44789;-92
2021/09/12 09:16:10;;;;;;;;;5.00;4.00;;;;;20.37;51.99;101592.47;4952617;28;45243;-91
2021/09/12 09:18:36;;;;;;;;;4.00;4.00;;;;;20.77;51.88;101615.19;4929492;28;47617;-92
2021/09/12 09:21:24;;;;;;;;;6.00;5.00;;;;;21.08;50.94;101623.78;4926886;28;45281;-90
2021/09/12 09:24:21;;;;;;;;;5.33;5.00;;;;;21.19;50.44;101599.59;4947260;28;45240;-91
2021/09/12 09:26:50;;;;;;;;;4.00;4.00;;;;;21.52;49.01;101616.06;4924933;28;45384;-90
2021/09/12 09:29:29;;;;;;;;;4.33;4.33;;;;;21.75;49.44;101618.41;4923370;28;48129;-89
2021/09/12 09:32:14;;;;;;;;;3.00;3.00;;;;;22.05;48.61;101617.06;4941716;28;45626;-88
2021/09/12 09:34:42;;;;;;;;;4.33;4.33;;;;;22.35;48.68;101608.53;4923834;28;45473;-84
2021/09/12 09:37:21;;;;;;;;;5.33;3.00;;;;;22.78;48.34;101617.59;4939661;28;45434;-84
2021/09/12 09:39:49;;;;;;;;;5.67;4.00;;;;;23.04;48.69;101623.31;4921849;28;46784;-84
2021/09/12 09:42:37;;;;;;;;;3.67;3.00;;;;;23.25;47.28;101621.97;4938956;28;45390;-83
2021/09/12 09:45:11;;;;;;;;;5.33;4.33;;;;;23.46;46.87;101625.13;4938713;28;45524;-86
2021/09/12 09:47:38;;;;;;;;;4.00;4.00;;;;;23.68;45.70;101616.56;4939565;28;45416;-86
2021/09/12 09:50:17;;;;;;;;;3.00;3.00;;;;;23.86;45.10;101617.06;4939095;28;45306;-87
2021/09/12 09:52:52;;;;;;;;;7.00;4.00;;;;;24.03;44.71;101608.56;4938868;28;45291;-86
2021/09/12 09:55:19;;;;;;;;;5.67;4.67;;;;;24.23;44.66;101615.25;4939668;28;45268;-85
2021/09/12 09:57:46;;;;;;;;;4.00;4.00;;;;;24.48;44.37;101614.59;4938401;28;45605;-86
2021/09/12 10:00:13;;;;;;;;;3.00;3.00;;;;;24.72;43.93;101613.03;4939517;28;46001;-85
2021/09/12 10:02:39;;;;;;;;;3.00;3.00;;;;;24.97;43.85;101609.66;4938987;28;45517;-85
2021/09/12 10:05:11;;;;;;;;;3.00;3.00;;;;;25.19;43.65;101610.84;4939411;28;45373;-87
2021/09/12 10:07:38;;;;;;;;;3.67;3.67;;;;;25.41;42.89;101608.34;4939214;28;45436;-82
2021/09/12 10:10:06;;;;;;;;;6.33;4.00;;;;;25.71;42.49;101606.56;4938635;28;45428;-84
2021/09/12 10:12:34;;;;;;;;;3.00;3.00;;;;;25.98;42.84;101604.75;4938437;28;45472;-84
2021/09/12 10:15:06;;;;;;;;;5.00;4.33;;;;;26.24;41.50;101597.59;4938562;28;45288;-82
2021/09/12 10:17:35;;;;;;;;;6.00;4.33;;;;;26.47;40.83;101600.41;4939153;28;45753;-84
2021/09/12 10:20:08;;;;;;;;;3.33;3.33;;;;;26.76;40.43;101595.75;4938416;28;45471;-82
2021/09/12 10:22:49;;;;;;;;;4.67;4.67;;;;;27.10;40.06;101603.53;4938642;28;45245;-82
2021/09/12 10:25:15;;;;;;;;;4.67;3.33;;;;;27.60;39.99;101602.44;4938625;28;45300;-82
2021/09/12 10:27:56;;;;;;;;;4.00;3.00;;;;;28.39;39.20;101591.94;4938690;28;45385;-85
2021/09/12 10:30:22;;;;;;;;;4.00;4.00;;;;;29.24;38.10;101596.25;4938074;28;45557;-83
2021/09/12 10:32:51;;;;;;;;;5.00;4.00;;;;;29.81;37.19;101594.44;4938448;28;45354;-82
2021/09/12 10:35:20;;;;;;;;;5.00;4.33;;;;;30.21;35.70;101583.34;4938504;28;45237;-83
2021/09/12 10:38:03;;;;;;;;;7.33;5.00;;;;;30.57;35.66;101584.19;4938660;28;45207;-81
2021/09/12 10:40:47;;;;;;;;;4.67;4.00;;;;;30.90;34.12;101589.72;4937903;28;46131;-84
2021/09/12 10:43:24;;;;;;;;;4.00;3.00;;;;;31.06;33.73;101582.47;4937894;28;45295;-84
2021/09/12 10:46:10;;;;;;;;;5.00;5.00;;;;;31.47;33.63;101590.19;4938399;28;45405;-84
2021/09/12 10:48:46;;;;;;;;;4.33;4.33;;;;;31.95;32.29;101587.34;4925392;28;45556;-84
2021/09/12 10:51:12;;;;;;;;;4.00;4.00;;;;;32.25;32.64;101591.03;4939169;28;47028;-84
2021/09/12 10:54:02;;;;;;;;;3.00;3.00;;;;;32.54;32.16;101593.78;4946023;28;45246;-83
2021/09/12 10:56:37;;;;;;;;;4.00;3.00;;;;;33.00;32.34;101589.09;4949207;28;45316;-83
2021/09/12 10:59:11;;;;;;;;;3.00;3.00;;;;;33.54;31.16;101600.16;4951540;28;45621;-90
2021/09/12 11:01:42;;;;;;;;;6.33;5.00;;;;;34.03;29.77;101599.66;4941260;28;45606;-87
2021/09/12 11:04:09;;;;;;;;;6.00;5.00;;;;;34.50;26.77;101591.84;4939603;28;45505;-85
2021/09/12 11:06:37;;;;;;;;;4.00;4.00;;;;;34.85;28.60;101590.31;4939462;28;45480;-84
2021/09/12 11:09:05;;;;;;;;;6.00;5.00;;;;;35.32;28.23;101586.91;4924453;28;45303;-86
2021/09/12 11:11:30;;;;;;;;;4.33;4.33;;;;;35.68;28.11;101583.31;4942351;28;45314;-86
2021/09/12 11:13:59;;;;;;;;;6.00;5.00;;;;;35.89;27.09;101583.56;4942062;28;45298;-86
2021/09/12 11:16:25;;;;;;;;;5.00;5.00;;;;;36.30;27.02;101583.09;4942745;28;45437;-85
2021/09/12 11:18:58;;;;;;;;;5.67;5.67;;;;;36.75;26.92;101586.88;4943117;28;45451;-85
2021/09/12 11:21:38;;;;;;;;;5.33;4.33;;;;;36.77;26.87;101592.22;4943292;28;45398;-85
2021/09/12 11:24:07;;;;;;;;;5.00;5.00;;;;;36.20;26.46;101584.84;4943793;28;45333;-84
2021/09/12 11:26:44;;;;;;;;;6.67;4.67;;;;;35.68;27.68;101578.75;4945433;28;45416;-90
2021/09/12 11:29:20;;;;;;;;;4.33;4.00;;;;;35.33;28.12;101576.81;4946558;28;45373;-86
2021/09/12 11:31:51;;;;;;;;;6.00;4.50;;;;;34.98;26.40;101573.88;4944157;28;45377;-85
2021/09/12 11:34:18;;;;;;;;;6.00;4.33;;;;;34.42;26.92;101570.56;4944026;28;45343;-88
2021/09/12 11:36:48;;;;;;;;;4.00;4.00;;;;;33.95;27.77;101572.94;4926779;28;45455;-87
2021/09/12 11:39:28;;;;;;;;;5.33;4.67;;;;;33.62;28.46;101559.63;4942563;28;45322;-89
2021/09/12 11:41:57;;;;;;;;;6.33;4.33;;;;;33.38;27.11;101565.75;4941865;28;45469;-89
2021/09/12 11:44:30;;;;;;;;;6.00;4.67;;;;;32.90;28.41;101550.72;4924606;28;45365;-89
2021/09/12 11:46:55;;;;;;;;;6.33;5.00;;;;;32.70;28.87;101546.56;4942133;28;45475;-91
2021/09/12 11:49:22;;;;;;;;;5.00;5.00;;;;;32.54;29.05;101535.75;4942512;28;45353;-91
2021/09/12 11:51:49;;;;;;;;;5.00;4.00;;;;;32.41;29.34;101543.81;4942406;28;46196;-90
2021/09/12 11:54:22;;;;;;;;;6.00;5.67;;;;;32.30;29.01;101549.97;4946441;28;45216;-84
2021/09/12 11:56:59;;;;;;;;;5.00;5.00;;;;;32.07;29.09;101554.97;4945996;28;45444;-89
2021/09/12 11:59:27;;;;;;;;;7.00;5.33;;;;;31.90;29.72;101548.69;4944659;28;45323;-85
2021/09/12 12:01:56;;;;;;;;;6.00;3.00;;;;;31.81;30.93;101555.56;4950537;28;45459;-88
2021/09/12 12:04:22;;;;;;;;;7.00;6.00;;;;;31.72;30.19;101545.25;4937911;28;45237;-89
2021/09/12 12:06:49;;;;;;;;;6.33;4.33;;;;;31.63;29.98;101541.22;4948660;28;45394;-84
2021/09/12 12:09:26;;;;;;;;;5.33;5.33;;;;;31.44;28.20;101526.88;4943393;28;45351;-88
2021/09/12 12:11:52;;;;;;;;;3.67;3.33;;;;;31.25;29.51;101532.53;4942950;28;45469;-89
2021/09/12 12:14:20;;;;;;;;;4.00;4.00;;;;;31.05;30.54;101544.56;4943774;28;45343;-86
2021/09/12 12:16:46;;;;;;;;;4.33;4.33;;;;;30.74;31.31;101536.25;4941277;28;45357;-86
2021/09/12 12:19:14;;;;;;;;;7.00;4.67;;;;;30.36;30.84;101535.59;4941172;28;45200;-85
2021/09/12 12:21:41;;;;;;;;;6.33;4.00;;;;;29.98;31.52;101533.06;4940932;28;45220;-85
2021/09/12 12:24:10;;;;;;;;;6.67;4.67;;;;;29.67;31.58;101540.97;4942024;28;45406;-85
2021/09/12 12:26:41;;;;;;;;;8.00;7.00;;;;;29.35;31.42;101526.25;4941756;28;45436;-84
2021/09/12 12:29:06;;;;;;;;;8.33;6.00;;;;;29.01;31.76;101536.88;4942142;28;45410;-82
2021/09/12 12:31:32;;;;;;;;;5.67;4.33;;;;;28.71;32.48;101529.25;4943140;28;45982;-83
2021/09/12 12:33:57;;;;;;;;;6.33;4.00;;;;;28.46;32.90;101527.69;4942000;28;45366;-84
2021/09/12 12:36:23;;;;;;;;;6.00;5.00;;;;;28.22;33.30;101527.81;4943797;28;45865;-85
2021/09/12 12:38:49;;;;;;;;;5.33;5.00;;;;;28.03;34.19;101523.25;4945009;28;45406;-84
2021/09/12 12:41:24;;;;;;;;;6.67;5.00;;;;;27.91;34.58;101526.50;4945150;28;45994;-83
2021/09/12 12:43:50;;;;;;;;;5.33;5.33;;;;;27.70;34.14;101524.63;4943934;28;45413;-84
2021/09/12 12:46:16;;;;;;;;;5.33;5.00;;;;;27.55;34.69;101523.47;4945929;28;45468;-82
2021/09/12 12:48:44;;;;;;;;;5.33;5.00;;;;;27.33;34.96;101520.78;4944049;28;45252;-83
2021/09/12 12:51:18;;;;;;;;;7.33;5.00;;;;;27.15;35.34;101518.78;4943917;28;45499;-83
2021/09/12 12:53:49;;;;;;;;;5.00;5.00;;;;;26.99;36.00;101514.91;4959039;28;45199;-90
2021/09/12 12:56:17;;;;;;;;;6.33;5.00;;;;;26.78;35.58;101504.03;4949499;28;45340;-90
2021/09/12 12:58:44;;;;;;;;;4.67;4.67;;;;;26.58;35.40;101509.25;4943768;28;45196;-92
2021/09/12 13:01:10;;;;;;;;;6.00;5.00;;;;;26.33;36.01;101490.41;4933731;28;47852;-93
2021/09/12 13:03:39;;;;;;;;;4.00;4.00;;;;;26.28;36.78;101498.66;4932268;28;45207;-92
2021/09/12 13:06:10;;;;;;;;;4.67;4.00;;;;;26.18;37.34;101486.47;4934342;28;45397;-90
2021/09/12 13:08:36;;;;;;;;;5.00;5.00;;;;;26.18;37.29;101508.91;4946778;28;45189;-94
2021/09/12 13:11:03;;;;;;;;;5.00;5.00;;;;;26.00;37.71;101487.06;4928322;28;47562;-93
2021/09/12 13:13:28;;;;;;;;;6.00;4.67;;;;;25.94;37.52;101495.38;4947156;28;45401;-92
2021/09/12 13:15:54;;;;;;;;;4.00;4.00;;;;;25.79;37.05;101480.63;4915978;28;45325;-91
2021/09/12 13:18:20;;;;;;;;;6.33;4.00;;;;;25.80;37.21;101485.09;4949674;28;45378;-91
2021/09/12 13:20:48;;;;;;;;;7.00;5.00;;;;;25.81;37.96;101503.00;4934366;28;47343;-91
2021/09/12 13:23:13;;;;;;;;;4.33;4.33;;;;;25.67;37.87;101474.72;4961599;28;45163;-84
2021/09/12 13:25:39;;;;;;;;;5.33;4.00;;;;;25.76;37.89;101495.06;4959347;28;45271;-84
2021/09/12 13:28:04;;;;;;;;;4.33;4.33;;;;;25.68;37.38;101484.53;4959652;28;45441;-87
2021/09/12 13:30:31;;;;;;;;;5.00;5.00;;;;;25.59;38.34;101478.59;4958379;28;46130;-84
2021/09/12 13:32:56;;;;;;;;;5.67;5.67;;;;;25.46;37.40;101470.97;4958894;28;45724;-83
2021/09/12 13:35:22;;;;;;;;;4.33;4.33;;;;;25.37;37.91;101468.56;4958591;28;45397;-83
2021/09/12 13:37:48;;;;;;;;;5.33;4.33;;;;;25.37;37.98;101480.22;4959222;28;45449;-83
2021/09/12 13:40:16;;;;;;;;;4.00;4.00;;;;;25.25;38.42;101468.06;4941927;28;46499;-86
2021/09/12 13:42:42;;;;;;;;;4.00;4.00;;;;;25.32;38.12;101480.34;4962090;28;44800;-83
2021/09/12 13:45:09;;;;;;;;;5.00;5.00;;;;;25.31;38.72;101475.91;4943783;28;45348;-81
2021/09/12 13:47:35;;;;;;;;;5.67;4.67;;;;;25.26;38.32;101480.56;4960487;28;45253;-83
2021/09/12 13:50:00;;;;;;;;;5.33;4.00;;;;;25.24;38.59;101479.72;4959117;28;45294;-83
2021/09/12 13:52:25;;;;;;;;;5.67;4.00;;;;;25.26;39.18;101471.59;4961197;28;44854;-86
2021/09/12 13:54:51;;;;;;;;;4.67;4.67;;;;;25.26;39.53;101485.94;4959080;28;45765;-86
2021/09/12 13:57:16;;;;;;;;;5.00;5.00;;;;;25.25;40.20;101473.44;4959286;28;45647;-86
2021/09/12 13:59:42;;;;;;;;;6.00;5.00;;;;;25.27;39.54;101474.25;4958627;28;45483;-85
2021/09/12 14:02:07;;;;;;;;;4.00;4.00;;;;;25.31;40.40;101469.66;4959604;28;45371;-85
2021/09/12 14:04:34;;;;;;;;;4.67;4.67;;;;;25.31;38.26;101475.03;4958364;28;45322;-77
2021/09/12 14:07:00;;;;;;;;;5.00;5.00;;;;;25.25;38.86;101470.75;4958606;28;45691;-84
2021/09/12 14:09:26;;;;;;;;;5.00;5.00;;;;;25.22;39.53;101476.22;4958043;28;45454;-84
2021/09/12 14:11:51;;;;;;;;;5.33;5.00;;;;;25.18;39.61;101469.16;4958274;28;45426;-88
2021/09/12 14:14:17;;;;;;;;;7.00;5.33;;;;;25.13;39.01;101468.47;4958526;28;45340;-86
2021/09/12 14:16:43;;;;;;;;;4.33;4.00;;;;;25.15;39.21;101469.28;4958827;28;45331;-87
2021/09/12 14:19:12;;;;;;;;;4.00;4.00;;;;;25.12;39.22;101464.00;4944931;28;48139;-86
2021/09/12 14:21:37;;;;;;;;;5.67;5.67;;;;;25.12;38.75;101470.25;4958733;28;45467;-85
2021/09/12 14:24:03;;;;;;;;;4.00;4.00;;;;;25.05;40.23;101458.81;4959004;28;45363;-82
2021/09/12 14:26:28;;;;;;;;;5.00;3.33;;;;;25.06;39.81;101460.59;4976124;28;45338;-87
2021/09/12 14:28:54;;;;;;;;;8.00;4.67;;;;;25.08;39.94;101458.72;4987276;28;44987;-85
2021/09/12 14:31:19;;;;;;;;;5.00;5.00;;;;;25.05;39.96;101453.44;4986153;28;44826;-82
2021/09/12 14:33:46;;;;;;;;;4.00;4.00;;;;;25.07;39.49;101458.75;4986150;28;45200;-84
2021/09/12 14:36:12;;;;;;;;;5.00;5.00;;;;;25.02;40.32;101447.28;4985468;28;44695;-85
2021/09/12 14:38:37;;;;;;;;;9.00;5.00;;;;;25.03;40.06;101454.41;4972090;28;46286;-83
2021/09/12 14:41:02;;;;;;;;;5.00;5.00;;;;;24.98;39.79;101454.59;4966082;28;45223;-82
2021/09/12 14:43:29;;;;;;;;;50.00;40.00;;;;;24.94;39.79;101442.09;4974434;28;44673;-83
2021/09/12 14:45:55;;;;;;;;;50.25;39.50;;;;;24.88;39.20;101440.50;4973827;28;45385;-85
2021/09/12 14:48:20;;;;;;;;;5.67;5.67;;;;;24.87;39.66;101441.44;4969510;28;46365;-85
2021/09/12 14:50:45;;;;;;;;;12.00;7.33;;;;;24.92;39.71;101460.09;4962661;28;45299;-84
2021/09/12 14:53:11;;;;;;;;;6.67;6.00;;;;;24.93;39.89;101464.56;4962467;28;45331;-87
2021/09/12 14:55:36;;;;;;;;;6.67;5.00;;;;;24.94;39.21;101450.16;4965796;28;45295;-87
2021/09/12 14:58:02;;;;;;;;;6.00;6.00;;;;;24.90;39.84;101451.19;4967497;28;46127;-85
2021/09/12 15:00:27;;;;;;;;;4.00;3.00;;;;;24.84;39.44;101434.34;4968160;28;45310;-83
2021/09/12 15:02:53;;;;;;;;;6.67;6.00;;;;;24.86;40.19;101443.25;4963550;28;45369;-85
2021/09/12 15:05:19;;;;;;;;;6.00;5.00;;;;;24.89;40.18;101438.69;4961666;28;45401;-81
2021/09/12 15:07:45;;;;;;;;;6.00;5.33;;;;;24.89;41.42;101433.31;4960422;28;46076;-80
2021/09/12 15:10:21;;;;;;;;;5.00;5.00;;;;;24.95;39.94;101435.81;4961463;28;45457;-78